sensor_id;sensor_type;location;lat;lon;timestamp;P1;durP1;ratioP1;P2;durP2;ratioP2
69703;SDS011;56967;43.538;-5.646;2023-03-14T00:02:10;13.27;;;3.17;;
69703;SDS011;56967;43.538;-5.646;2023-03-14T00:04:35;9.63;;;1.75;;
69703;SDS011;56967;43.538;-5.646;2023-03-14T00:07:01;8.60;;;1.60;;
69703;SDS011;56967;43.538;-5.646;2023-03-14T00:09:27;6.85;;;1.73;;
69703;SDS011;56967;43.538;-5.646;2023-03-14T00:11:54;7.40;;;1.40;;
69703;SDS011;56967;43.538;-5.646;2023-03-14T00:14:20;4.55;;;1.30;;
69703;SDS011;56967;43.538;-5.646;2023-03-14T00:16:46;6.68;;;1.40;;
69703;SDS011;56967;43.538;-5.646;2023-03-14T00:19:11;14.18;;;2.20;;
69703;SDS011;56967;43.538;-5.646;2023-03-14T00:21:37;11.07;;;1.98;;
69703;SDS011;56967;43.538;-5.646;2023-03-14T00:24:03;6.20;;;1.40;;
69703;SDS011;56967;43.538;-5.646;2023-03-14T00:26:28;6.05;;;1.50;;
69703;SDS011;56967;43.538;-5.646;2023-03-14T00:28:54;9.70;;;1.55;;
69703;SDS011;56967;43.538;-5.646;2023-03-14T00:31:20;8.25;;;1.70;;
69703;SDS011;56967;43.538;-5.646;2023-03-14T00:33:46;10.43;;;1.88;;
69703;SDS011;56967;43.538;-5.646;2023-03-14T00:36:12;11.73;;;2.00;;
69703;SDS011;56967;43.538;-5.646;2023-03-14T00:38:40;9.45;;;1.52;;
69703;SDS011;56967;43.538;-5.646;2023-03-14T00:41:08;7.07;;;1.67;;
69703;SDS011;56967;43.538;-5.646;2023-03-14T00:43:35;8.63;;;1.80;;
69703;SDS011;56967;43.538;-5.646;2023-03-14T00:46:01;9.40;;;1.70;;
69703;SDS011;56967;43.538;-5.646;2023-03-14T00:48:27;7.40;;;2.45;;
69703;SDS011;56967;43.538;-5.646;2023-03-14T00:50:53;11.07;;;2.10;;
69703;SDS011;56967;43.538;-5.646;2023-03-14T00:53:18;9.52;;;2.35;;
69703;SDS011;56967;43.538;-5.646;2023-03-14T00:55:44;13.60;;;2.92;;
69703;SDS011;56967;43.538;-5.646;2023-03-14T00:58:11;14.90;;;2.28;;
69703;SDS011;56967;43.538;-5.646;2023-03-14T01:00:38;11.90;;;2.08;;
69703;SDS011;56967;43.538;-5.646;2023-03-14T01:03:04;12.10;;;2.30;;
69703;SDS011;56967;43.538;-5.646;2023-03-14T01:05:30;10.57;;;1.88;;
69703;SDS011;56967;43.538;-5.646;2023-03-14T01:07:55;11.38;;;2.13;;
69703;SDS011;56967;43.538;-5.646;2023-03-14T01:10:21;8.98;;;1.60;;
69703;SDS011;56967;43.538;-5.646;2023-03-14T01:12:47;6.10;;;1.40;;
69703;SDS011;56967;43.538;-5.646;2023-03-14T01:15:13;8.38;;;2.00;;
69703;SDS011;56967;43.538;-5.646;2023-03-14T01:17:38;8.98;;;1.60;;
69703;SDS011;56967;43.538;-5.646;2023-03-14T01:20:04;7.82;;;1.73;;
69703;SDS011;56967;43.538;-5.646;2023-03-14T01:22:34;7.03;;;1.52;;
69703;SDS011;56967;43.538;-5.646;2023-03-14T01:25:05;10.85;;;1.77;;
69703;SDS011;56967;43.538;-5.646;2023-03-14T01:27:32;10.07;;;1.73;;
69703;SDS011;56967;43.538;-5.646;2023-03-14T01:29:58;10.50;;;2.22;;
69703;SDS011;56967;43.538;-5.646;2023-03-14T01:32:23;7.60;;;1.75;;
69703;SDS011;56967;43.538;-5.646;2023-03-14T01:34:50;8.43;;;1.88;;
69703;SDS011;56967;43.538;-5.646;2023-03-14T01:37:16;9.23;;;1.85;;
69703;SDS011;56967;43.538;-5.646;2023-03-14T01:39:41;11.98;;;1.88;;
69703;SDS011;56967;43.538;-5.646;2023-03-14T01:42:07;10.90;;;2.03;;
69703;SDS011;56967;43.538;-5.646;2023-03-14T01:47:18;13.38;;;1.90;;
69703;SDS011;56967;43.538;-5.646;2023-03-14T01:49:45;14.07;;;2.33;;
69703;SDS011;56967;43.538;-5.646;2023-03-14T01:52:13;9.13;;;2.00;;
69703;SDS011;56967;43.538;-5.646;2023-03-14T01:55:07;18.23;;;2.40;;
69703;SDS011;56967;43.538;-5.646;2023-03-14T01:57:38;13.70;;;2.20;;
69703;SDS011;56967;43.538;-5.646;2023-03-14T02:00:11;17.20;;;3.00;;
69703;SDS011;56967;43.538;-5.646;2023-03-14T02:02:41;12.00;;;2.50;;
69703;SDS011;56967;43.538;-5.646;2023-03-14T02:05:10;9.73;;;2.08;;
69703;SDS011;56967;43.538;-5.646;2023-03-14T02:10:08;9.75;;;1.80;;
69703;SDS011;56967;43.538;-5.646;2023-03-14T02:12:35;9.50;;;1.65;;
69703;SDS011;56967;43.538;-5.646;2023-03-14T02:15:02;7.72;;;1.70;;
69703;SDS011;56967;43.538;-5.646;2023-03-14T02:17:28;7.68;;;1.30;;
69703;SDS011;56967;43.538;-5.646;2023-03-14T02:22:33;6.95;;;1.33;;
69703;SDS011;56967;43.538;-5.646;2023-03-14T02:25:46;9.25;;;1.50;;
69703;SDS011;56967;43.538;-5.646;2023-03-14T02:27:51;8.38;;;1.50;;
69703;SDS011;56967;43.538;-5.646;2023-03-14T02:30:18;10.20;;;1.52;;
69703;SDS011;56967;43.538;-5.646;2023-03-14T02:32:52;6.97;;;1.25;;
69703;SDS011;56967;43.538;-5.646;2023-03-14T02:35:23;8.35;;;1.45;;
69703;SDS011;56967;43.538;-5.646;2023-03-14T02:37:53;6.45;;;1.60;;
69703;SDS011;56967;43.538;-5.646;2023-03-14T02:40:23;5.88;;;1.30;;
69703;SDS011;56967;43.538;-5.646;2023-03-14T02:42:48;5.10;;;1.10;;
69703;SDS011;56967;43.538;-5.646;2023-03-14T02:47:42;6.50;;;1.50;;
69703;SDS011;56967;43.538;-5.646;2023-03-14T02:50:13;6.93;;;1.20;;
69703;SDS011;56967;43.538;-5.646;2023-03-14T02:52:42;6.82;;;1.50;;
69703;SDS011;56967;43.538;-5.646;2023-03-14T02:55:08;6.95;;;1.10;;
69703;SDS011;56967;43.538;-5.646;2023-03-14T02:57:34;6.82;;;1.08;;
69703;SDS011;56967;43.538;-5.646;2023-03-14T03:00:00;4.97;;;1.20;;
69703;SDS011;56967;43.538;-5.646;2023-03-14T03:02:29;4.57;;;1.00;;
69703;SDS011;56967;43.538;-5.646;2023-03-14T03:04:54;4.57;;;1.00;;
69703;SDS011;56967;43.538;-5.646;2023-03-14T03:07:20;5.80;;;1.40;;
69703;SDS011;56967;43.538;-5.646;2023-03-14T03:09:46;3.05;;;0.90;;
69703;SDS011;56967;43.538;-5.646;2023-03-14T03:12:11;5.68;;;1.20;;
69703;SDS011;56967;43.538;-5.646;2023-03-14T03:14:37;4.28;;;0.75;;
69703;SDS011;56967;43.538;-5.646;2023-03-14T03:17:03;4.57;;;1.23;;
69703;SDS011;56967;43.538;-5.646;2023-03-14T03:19:30;3.85;;;0.98;;
69703;SDS011;56967;43.538;-5.646;2023-03-14T03:21:56;4.70;;;1.05;;
69703;SDS011;56967;43.538;-5.646;2023-03-14T03:24:21;4.93;;;1.00;;
69703;SDS011;56967;43.538;-5.646;2023-03-14T03:26:47;6.78;;;1.02;;
69703;SDS011;56967;43.538;-5.646;2023-03-14T03:29:12;5.05;;;0.90;;
69703;SDS011;56967;43.538;-5.646;2023-03-14T03:31:38;5.20;;;1.00;;
69703;SDS011;56967;43.538;-5.646;2023-03-14T03:34:03;5.82;;;0.93;;
69703;SDS011;56967;43.538;-5.646;2023-03-14T03:36:29;2.35;;;0.70;;
69703;SDS011;56967;43.538;-5.646;2023-03-14T03:38:54;4.15;;;1.00;;
69703;SDS011;56967;43.538;-5.646;2023-03-14T03:41:20;4.82;;;0.90;;
69703;SDS011;56967;43.538;-5.646;2023-03-14T03:43:45;8.15;;;1.00;;
69703;SDS011;56967;43.538;-5.646;2023-03-14T03:46:11;4.78;;;1.08;;
69703;SDS011;56967;43.538;-5.646;2023-03-14T03:48:37;5.22;;;0.93;;
69703;SDS011;56967;43.538;-5.646;2023-03-14T03:51:02;4.82;;;0.93;;
69703;SDS011;56967;43.538;-5.646;2023-03-14T03:53:28;6.10;;;1.10;;
69703;SDS011;56967;43.538;-5.646;2023-03-14T03:55:54;4.68;;;1.27;;
69703;SDS011;56967;43.538;-5.646;2023-03-14T03:58:19;8.82;;;1.33;;
69703;SDS011;56967;43.538;-5.646;2023-03-14T04:00:45;5.82;;;1.00;;
69703;SDS011;56967;43.538;-5.646;2023-03-14T04:03:10;7.38;;;1.35;;
69703;SDS011;56967;43.538;-5.646;2023-03-14T04:05:36;5.50;;;0.80;;
69703;SDS011;56967;43.538;-5.646;2023-03-14T04:08:02;5.18;;;1.10;;
69703;SDS011;56967;43.538;-5.646;2023-03-14T04:10:28;7.47;;;1.45;;
69703;SDS011;56967;43.538;-5.646;2023-03-14T04:12:54;4.82;;;1.15;;
69703;SDS011;56967;43.538;-5.646;2023-03-14T04:15:20;7.38;;;1.63;;
69703;SDS011;56967;43.538;-5.646;2023-03-14T04:17:45;5.55;;;1.00;;
69703;SDS011;56967;43.538;-5.646;2023-03-14T04:20:11;7.78;;;1.33;;
69703;SDS011;56967;43.538;-5.646;2023-03-14T04:22:37;5.78;;;1.23;;
69703;SDS011;56967;43.538;-5.646;2023-03-14T04:25:04;8.68;;;1.20;;
69703;SDS011;56967;43.538;-5.646;2023-03-14T04:27:30;6.72;;;1.30;;
69703;SDS011;56967;43.538;-5.646;2023-03-14T04:29:56;5.55;;;1.20;;
69703;SDS011;56967;43.538;-5.646;2023-03-14T04:32:22;3.50;;;1.05;;
69703;SDS011;56967;43.538;-5.646;2023-03-14T04:34:47;3.40;;;1.00;;
69703;SDS011;56967;43.538;-5.646;2023-03-14T04:37:13;3.08;;;0.70;;
69703;SDS011;56967;43.538;-5.646;2023-03-14T04:39:38;7.70;;;1.00;;
69703;SDS011;56967;43.538;-5.646;2023-03-14T04:42:04;2.50;;;0.73;;
69703;SDS011;56967;43.538;-5.646;2023-03-14T04:44:29;3.97;;;0.98;;
69703;SDS011;56967;43.538;-5.646;2023-03-14T04:46:55;5.30;;;0.98;;
69703;SDS011;56967;43.538;-5.646;2023-03-14T04:49:20;4.03;;;0.88;;
69703;SDS011;56967;43.538;-5.646;2023-03-14T04:51:46;4.60;;;0.95;;
69703;SDS011;56967;43.538;-5.646;2023-03-14T04:54:12;6.03;;;1.40;;
69703;SDS011;56967;43.538;-5.646;2023-03-14T04:56:37;5.68;;;1.38;;
69703;SDS011;56967;43.538;-5.646;2023-03-14T04:59:03;5.00;;;1.20;;
69703;SDS011;56967;43.538;-5.646;2023-03-14T05:01:29;5.80;;;1.13;;
69703;SDS011;56967;43.538;-5.646;2023-03-14T05:03:55;4.03;;;0.93;;
69703;SDS011;56967;43.538;-5.646;2023-03-14T05:06:20;7.32;;;1.05;;
69703;SDS011;56967;43.538;-5.646;2023-03-14T05:08:46;6.10;;;1.80;;
69703;SDS011;56967;43.538;-5.646;2023-03-14T05:11:12;6.20;;;1.15;;
69703;SDS011;56967;43.538;-5.646;2023-03-14T05:13:38;6.90;;;1.25;;
69703;SDS011;56967;43.538;-5.646;2023-03-14T05:16:04;6.00;;;1.75;;
69703;SDS011;56967;43.538;-5.646;2023-03-14T05:18:34;5.57;;;1.10;;
69703;SDS011;56967;43.538;-5.646;2023-03-14T05:21:00;7.35;;;1.30;;
69703;SDS011;56967;43.538;-5.646;2023-03-14T05:23:26;7.60;;;1.10;;
69703;SDS011;56967;43.538;-5.646;2023-03-14T05:25:52;5.22;;;0.98;;
69703;SDS011;56967;43.538;-5.646;2023-03-14T05:28:18;5.28;;;1.08;;
69703;SDS011;56967;43.538;-5.646;2023-03-14T05:30:44;5.00;;;1.08;;
69703;SDS011;56967;43.538;-5.646;2023-03-14T05:33:09;5.65;;;1.13;;
69703;SDS011;56967;43.538;-5.646;2023-03-14T05:35:35;4.72;;;1.23;;
69703;SDS011;56967;43.538;-5.646;2023-03-14T05:38:00;6.40;;;1.23;;
69703;SDS011;56967;43.538;-5.646;2023-03-14T05:40:26;4.82;;;0.95;;
69703;SDS011;56967;43.538;-5.646;2023-03-14T05:42:52;7.00;;;1.00;;
69703;SDS011;56967;43.538;-5.646;2023-03-14T05:45:17;4.80;;;0.90;;
69703;SDS011;56967;43.538;-5.646;2023-03-14T05:47:43;5.68;;;1.13;;
69703;SDS011;56967;43.538;-5.646;2023-03-14T05:50:09;9.05;;;1.27;;
69703;SDS011;56967;43.538;-5.646;2023-03-14T05:52:35;8.00;;;1.00;;
69703;SDS011;56967;43.538;-5.646;2023-03-14T05:55:02;3.97;;;0.77;;
69703;SDS011;56967;43.538;-5.646;2023-03-14T05:57:27;2.83;;;0.80;;
69703;SDS011;56967;43.538;-5.646;2023-03-14T05:59:53;6.45;;;1.60;;
69703;SDS011;56967;43.538;-5.646;2023-03-14T06:02:18;6.78;;;1.50;;
69703;SDS011;56967;43.538;-5.646;2023-03-14T06:04:44;9.55;;;2.03;;
69703;SDS011;56967;43.538;-5.646;2023-03-14T06:07:09;5.50;;;1.90;;
69703;SDS011;56967;43.538;-5.646;2023-03-14T06:09:35;5.60;;;2.00;;
69703;SDS011;56967;43.538;-5.646;2023-03-14T06:12:00;9.50;;;2.13;;
69703;SDS011;56967;43.538;-5.646;2023-03-14T06:14:26;5.32;;;1.70;;
69703;SDS011;56967;43.538;-5.646;2023-03-14T06:16:52;5.80;;;1.50;;
69703;SDS011;56967;43.538;-5.646;2023-03-14T06:19:22;4.72;;;1.23;;
69703;SDS011;56967;43.538;-5.646;2023-03-14T06:21:51;6.35;;;1.40;;
69703;SDS011;56967;43.538;-5.646;2023-03-14T06:24:17;6.53;;;1.38;;
69703;SDS011;56967;43.538;-5.646;2023-03-14T06:26:42;8.25;;;1.60;;
69703;SDS011;56967;43.538;-5.646;2023-03-14T06:29:08;5.65;;;1.55;;
69703;SDS011;56967;43.538;-5.646;2023-03-14T06:31:34;4.93;;;1.20;;
69703;SDS011;56967;43.538;-5.646;2023-03-14T06:34:00;8.85;;;1.92;;
69703;SDS011;56967;43.538;-5.646;2023-03-14T06:36:26;7.25;;;1.60;;
69703;SDS011;56967;43.538;-5.646;2023-03-14T06:38:51;8.40;;;2.10;;
69703;SDS011;56967;43.538;-5.646;2023-03-14T06:41:17;8.45;;;2.08;;
69703;SDS011;56967;43.538;-5.646;2023-03-14T06:43:42;6.90;;;2.20;;
69703;SDS011;56967;43.538;-5.646;2023-03-14T06:46:08;10.18;;;2.00;;
69703;SDS011;56967;43.538;-5.646;2023-03-14T06:48:33;6.38;;;1.60;;
69703;SDS011;56967;43.538;-5.646;2023-03-14T06:50:59;7.28;;;2.30;;
69703;SDS011;56967;43.538;-5.646;2023-03-14T06:53:24;16.52;;;2.85;;
69703;SDS011;56967;43.538;-5.646;2023-03-14T06:55:50;9.68;;;1.80;;
69703;SDS011;56967;43.538;-5.646;2023-03-14T06:58:16;9.95;;;2.20;;
69703;SDS011;56967;43.538;-5.646;2023-03-14T07:00:41;4.28;;;1.42;;
69703;SDS011;56967;43.538;-5.646;2023-03-14T07:03:07;10.55;;;2.00;;
69703;SDS011;56967;43.538;-5.646;2023-03-14T07:05:33;6.63;;;1.23;;
69703;SDS011;56967;43.538;-5.646;2023-03-14T07:07:58;7.72;;;1.42;;
69703;SDS011;56967;43.538;-5.646;2023-03-14T07:10:24;9.73;;;1.35;;
69703;SDS011;56967;43.538;-5.646;2023-03-14T07:12:49;9.98;;;1.58;;
69703;SDS011;56967;43.538;-5.646;2023-03-14T07:15:15;7.93;;;1.60;;
69703;SDS011;56967;43.538;-5.646;2023-03-14T07:17:40;7.88;;;1.40;;
69703;SDS011;56967;43.538;-5.646;2023-03-14T07:20:06;6.32;;;1.40;;
69703;SDS011;56967;43.538;-5.646;2023-03-14T07:22:32;7.75;;;1.20;;
69703;SDS011;56967;43.538;-5.646;2023-03-14T07:24:58;5.47;;;1.85;;
69703;SDS011;56967;43.538;-5.646;2023-03-14T07:27:24;7.05;;;1.23;;
69703;SDS011;56967;43.538;-5.646;2023-03-14T07:29:49;6.53;;;1.27;;
69703;SDS011;56967;43.538;-5.646;2023-03-14T07:32:15;8.50;;;1.63;;
69703;SDS011;56967;43.538;-5.646;2023-03-14T07:34:41;4.55;;;1.67;;
69703;SDS011;56967;43.538;-5.646;2023-03-14T07:37:07;5.53;;;1.70;;
69703;SDS011;56967;43.538;-5.646;2023-03-14T07:39:32;7.32;;;1.70;;
69703;SDS011;56967;43.538;-5.646;2023-03-14T07:41:58;8.40;;;1.45;;
69703;SDS011;56967;43.538;-5.646;2023-03-14T07:44:23;3.95;;;1.80;;
69703;SDS011;56967;43.538;-5.646;2023-03-14T07:46:49;6.70;;;1.90;;
69703;SDS011;56967;43.538;-5.646;2023-03-14T07:49:15;8.88;;;2.40;;
69703;SDS011;56967;43.538;-5.646;2023-03-14T07:51:40;5.68;;;2.40;;
69703;SDS011;56967;43.538;-5.646;2023-03-14T07:54:06;5.43;;;2.53;;
69703;SDS011;56967;43.538;-5.646;2023-03-14T07:56:31;7.25;;;2.40;;
69703;SDS011;56967;43.538;-5.646;2023-03-14T07:58:57;5.93;;;2.40;;
69703;SDS011;56967;43.538;-5.646;2023-03-14T08:01:23;6.65;;;2.55;;
69703;SDS011;56967;43.538;-5.646;2023-03-14T08:03:48;5.38;;;2.40;;
69703;SDS011;56967;43.538;-5.646;2023-03-14T08:06:14;7.60;;;2.42;;
69703;SDS011;56967;43.538;-5.646;2023-03-14T08:08:39;7.72;;;2.40;;
69703;SDS011;56967;43.538;-5.646;2023-03-14T08:11:05;6.20;;;2.60;;
69703;SDS011;56967;43.538;-5.646;2023-03-14T08:13:33;6.45;;;2.60;;
69703;SDS011;56967;43.538;-5.646;2023-03-14T08:16:00;6.57;;;2.90;;
69703;SDS011;56967;43.538;-5.646;2023-03-14T08:18:26;6.47;;;2.67;;
69703;SDS011;56967;43.538;-5.646;2023-03-14T08:20:51;7.03;;;2.70;;
69703;SDS011;56967;43.538;-5.646;2023-03-14T08:23:17;6.38;;;2.50;;
69703;SDS011;56967;43.538;-5.646;2023-03-14T08:25:45;8.45;;;2.45;;
69703;SDS011;56967;43.538;-5.646;2023-03-14T08:28:14;11.20;;;2.53;;
69703;SDS011;56967;43.538;-5.646;2023-03-14T08:30:39;6.60;;;1.80;;
69703;SDS011;56967;43.538;-5.646;2023-03-14T08:33:05;7.75;;;2.00;;
69703;SDS011;56967;43.538;-5.646;2023-03-14T08:35:30;11.52;;;2.33;;
69703;SDS011;56967;43.538;-5.646;2023-03-14T08:37:56;10.80;;;2.20;;
69703;SDS011;56967;43.538;-5.646;2023-03-14T08:40:21;10.18;;;2.20;;
69703;SDS011;56967;43.538;-5.646;2023-03-14T08:42:47;7.63;;;2.17;;
69703;SDS011;56967;43.538;-5.646;2023-03-14T08:45:13;7.65;;;2.10;;
69703;SDS011;56967;43.538;-5.646;2023-03-14T08:47:41;6.75;;;2.70;;
69703;SDS011;56967;43.538;-5.646;2023-03-14T08:50:08;6.43;;;2.20;;
69703;SDS011;56967;43.538;-5.646;2023-03-14T08:52:34;10.88;;;3.47;;
69703;SDS011;56967;43.538;-5.646;2023-03-14T08:55:00;10.85;;;3.40;;
69703;SDS011;56967;43.538;-5.646;2023-03-14T08:57:26;10.90;;;2.83;;
69703;SDS011;56967;43.538;-5.646;2023-03-14T08:59:54;12.38;;;2.90;;
69703;SDS011;56967;43.538;-5.646;2023-03-14T09:02:21;11.55;;;2.67;;
69703;SDS011;56967;43.538;-5.646;2023-03-14T09:04:47;12.80;;;3.03;;
69703;SDS011;56967;43.538;-5.646;2023-03-14T09:07:12;9.68;;;2.83;;
69703;SDS011;56967;43.538;-5.646;2023-03-14T09:09:38;11.65;;;2.65;;
69703;SDS011;56967;43.538;-5.646;2023-03-14T09:12:03;8.88;;;2.17;;
69703;SDS011;56967;43.538;-5.646;2023-03-14T09:14:30;9.93;;;2.45;;
69703;SDS011;56967;43.538;-5.646;2023-03-14T09:16:56;13.18;;;2.55;;
69703;SDS011;56967;43.538;-5.646;2023-03-14T09:19:22;7.68;;;2.28;;
69703;SDS011;56967;43.538;-5.646;2023-03-14T09:21:48;9.57;;;2.20;;
69703;SDS011;56967;43.538;-5.646;2023-03-14T09:24:13;10.90;;;2.25;;
69703;SDS011;56967;43.538;-5.646;2023-03-14T09:26:39;10.93;;;2.45;;
69703;SDS011;56967;43.538;-5.646;2023-03-14T09:29:05;12.45;;;2.30;;
69703;SDS011;56967;43.538;-5.646;2023-03-14T09:31:30;11.73;;;2.88;;
69703;SDS011;56967;43.538;-5.646;2023-03-14T09:33:56;10.10;;;2.10;;
69703;SDS011;56967;43.538;-5.646;2023-03-14T09:36:22;10.68;;;2.60;;
69703;SDS011;56967;43.538;-5.646;2023-03-14T09:38:47;8.32;;;3.78;;
69703;SDS011;56967;43.538;-5.646;2023-03-14T09:46:50;9.93;;;2.53;;
69703;SDS011;56967;43.538;-5.646;2023-03-14T09:49:23;8.80;;;1.90;;
69703;SDS011;56967;43.538;-5.646;2023-03-14T09:51:56;7.22;;;1.80;;
69703;SDS011;56967;43.538;-5.646;2023-03-14T09:56:59;9.38;;;1.83;;
69703;SDS011;56967;43.538;-5.646;2023-03-14T09:59:25;8.57;;;1.60;;
69703;SDS011;56967;43.538;-5.646;2023-03-14T10:01:52;7.80;;;1.88;;
69703;SDS011;56967;43.538;-5.646;2023-03-14T10:04:20;9.85;;;1.85;;
69703;SDS011;56967;43.538;-5.646;2023-03-14T10:06:48;8.13;;;2.40;;
69703;SDS011;56967;43.538;-5.646;2023-03-14T10:09:19;8.40;;;1.77;;
69703;SDS011;56967;43.538;-5.646;2023-03-14T10:11:51;9.45;;;2.08;;
69703;SDS011;56967;43.538;-5.646;2023-03-14T10:14:34;9.88;;;2.75;;
69703;SDS011;56967;43.538;-5.646;2023-03-14T10:17:10;9.57;;;1.85;;
69703;SDS011;56967;43.538;-5.646;2023-03-14T10:19:37;8.25;;;1.83;;
69703;SDS011;56967;43.538;-5.646;2023-03-14T10:22:15;10.32;;;1.90;;
69703;SDS011;56967;43.538;-5.646;2023-03-14T10:24:45;9.80;;;2.50;;
69703;SDS011;56967;43.538;-5.646;2023-03-14T10:27:19;10.25;;;2.00;;
69703;SDS011;56967;43.538;-5.646;2023-03-14T10:29:56;12.40;;;1.95;;
69703;SDS011;56967;43.538;-5.646;2023-03-14T10:32:29;10.57;;;2.17;;
69703;SDS011;56967;43.538;-5.646;2023-03-14T10:35:18;7.88;;;2.00;;
69703;SDS011;56967;43.538;-5.646;2023-03-14T10:37:52;7.40;;;2.63;;
69703;SDS011;56967;43.538;-5.646;2023-03-14T10:40:24;9.02;;;2.20;;
69703;SDS011;56967;43.538;-5.646;2023-03-14T10:42:53;8.85;;;2.20;;
69703;SDS011;56967;43.538;-5.646;2023-03-14T10:45:41;11.40;;;1.88;;
69703;SDS011;56967;43.538;-5.646;2023-03-14T10:48:23;8.30;;;2.00;;
69703;SDS011;56967;43.538;-5.646;2023-03-14T10:50:56;16.85;;;2.20;;
69703;SDS011;56967;43.538;-5.646;2023-03-14T10:53:25;8.43;;;2.15;;
69703;SDS011;56967;43.538;-5.646;2023-03-14T10:55:51;11.93;;;2.08;;
69703;SDS011;56967;43.538;-5.646;2023-03-14T10:58:21;10.30;;;1.90;;
69703;SDS011;56967;43.538;-5.646;2023-03-14T11:00:50;12.48;;;2.80;;
69703;SDS011;56967;43.538;-5.646;2023-03-14T11:03:21;7.10;;;1.95;;
69703;SDS011;56967;43.538;-5.646;2023-03-14T11:05:51;11.13;;;2.33;;
69703;SDS011;56967;43.538;-5.646;2023-03-14T11:11:18;9.88;;;2.08;;
69703;SDS011;56967;43.538;-5.646;2023-03-14T11:13:55;8.23;;;2.00;;
69703;SDS011;56967;43.538;-5.646;2023-03-14T11:19:14;9.73;;;2.17;;
69703;SDS011;56967;43.538;-5.646;2023-03-14T11:32:36;9.18;;;2.05;;
69703;SDS011;56967;43.538;-5.646;2023-03-14T11:40:57;11.70;;;2.67;;
69703;SDS011;56967;43.538;-5.646;2023-03-14T11:43:26;7.60;;;1.65;;
69703;SDS011;56967;43.538;-5.646;2023-03-14T11:46:06;12.85;;;2.38;;
69703;SDS011;56967;43.538;-5.646;2023-03-14T11:49:01;12.50;;;2.40;;
69703;SDS011;56967;43.538;-5.646;2023-03-14T11:51:35;20.73;;;3.08;;
69703;SDS011;56967;43.538;-5.646;2023-03-14T11:57:02;11.43;;;2.50;;
69703;SDS011;56967;43.538;-5.646;2023-03-14T11:59:33;22.58;;;2.80;;
69703;SDS011;56967;43.538;-5.646;2023-03-14T12:07:19;9.23;;;2.10;;
69703;SDS011;56967;43.538;-5.646;2023-03-14T12:09:51;11.48;;;2.33;;
69703;SDS011;56967;43.538;-5.646;2023-03-14T12:12:22;13.02;;;2.83;;
69703;SDS011;56967;43.538;-5.646;2023-03-14T12:14:56;17.30;;;3.28;;
69703;SDS011;56967;43.538;-5.646;2023-03-14T12:17:36;15.07;;;2.70;;
69703;SDS011;56967;43.538;-5.646;2023-03-14T12:25:18;16.58;;;2.70;;
69703;SDS011;56967;43.538;-5.646;2023-03-14T12:35:39;21.77;;;3.55;;
69703;SDS011;56967;43.538;-5.646;2023-03-14T12:38:11;9.35;;;1.90;;
69703;SDS011;56967;43.538;-5.646;2023-03-14T12:43:34;15.65;;;3.25;;
69703;SDS011;56967;43.538;-5.646;2023-03-14T12:46:07;25.00;;;3.53;;
69703;SDS011;56967;43.538;-5.646;2023-03-14T12:48:41;28.50;;;4.47;;
69703;SDS011;56967;43.538;-5.646;2023-03-14T12:51:28;25.98;;;4.22;;
69703;SDS011;56967;43.538;-5.646;2023-03-14T13:02:15;35.47;;;5.55;;
69703;SDS011;56967;43.538;-5.646;2023-03-14T13:04:54;22.30;;;4.28;;
69703;SDS011;56967;43.538;-5.646;2023-03-14T13:07:31;21.20;;;3.60;;
69703;SDS011;56967;43.538;-5.646;2023-03-14T13:12:57;49.78;;;6.15;;
69703;SDS011;56967;43.538;-5.646;2023-03-14T13:21:01;20.35;;;3.33;;
69703;SDS011;56967;43.538;-5.646;2023-03-14T13:23:31;21.98;;;3.45;;
69703;SDS011;56967;43.538;-5.646;2023-03-14T13:25:59;14.90;;;3.20;;
69703;SDS011;56967;43.538;-5.646;2023-03-14T13:28:26;20.88;;;3.53;;
69703;SDS011;56967;43.538;-5.646;2023-03-14T13:31:01;30.92;;;4.30;;
69703;SDS011;56967;43.538;-5.646;2023-03-14T13:33:28;30.80;;;4.60;;
69703;SDS011;56967;43.538;-5.646;2023-03-14T13:38:23;22.92;;;4.35;;
69703;SDS011;56967;43.538;-5.646;2023-03-14T13:40:51;21.52;;;4.28;;
69703;SDS011;56967;43.538;-5.646;2023-03-14T13:43:39;23.52;;;4.15;;
69703;SDS011;56967;43.538;-5.646;2023-03-14T13:46:07;20.45;;;3.40;;
69703;SDS011;56967;43.538;-5.646;2023-03-14T13:48:44;15.07;;;3.08;;
69703;SDS011;56967;43.538;-5.646;2023-03-14T13:51:13;24.13;;;3.97;;
69703;SDS011;56967;43.538;-5.646;2023-03-14T13:56:15;22.20;;;3.88;;
69703;SDS011;56967;43.538;-5.646;2023-03-14T13:58:42;19.70;;;3.38;;
69703;SDS011;56967;43.538;-5.646;2023-03-14T14:01:12;15.25;;;2.90;;
69703;SDS011;56967;43.538;-5.646;2023-03-14T14:04:02;16.92;;;3.95;;
69703;SDS011;56967;43.538;-5.646;2023-03-14T14:06:44;20.13;;;2.92;;
69703;SDS011;56967;43.538;-5.646;2023-03-14T14:09:14;21.17;;;3.20;;
69703;SDS011;56967;43.538;-5.646;2023-03-14T14:12:01;14.30;;;2.75;;
69703;SDS011;56967;43.538;-5.646;2023-03-14T14:14:35;12.43;;;2.38;;
69703;SDS011;56967;43.538;-5.646;2023-03-14T14:17:05;17.60;;;2.80;;
69703;SDS011;56967;43.538;-5.646;2023-03-14T14:19:34;17.08;;;3.33;;
69703;SDS011;56967;43.538;-5.646;2023-03-14T14:22:01;24.23;;;3.72;;
69703;SDS011;56967;43.538;-5.646;2023-03-14T14:24:29;18.67;;;3.15;;
69703;SDS011;56967;43.538;-5.646;2023-03-14T14:29:42;18.73;;;3.33;;
69703;SDS011;56967;43.538;-5.646;2023-03-14T14:37:20;30.48;;;5.53;;
69703;SDS011;56967;43.538;-5.646;2023-03-14T14:39:57;31.17;;;5.13;;
69703;SDS011;56967;43.538;-5.646;2023-03-14T14:42:25;41.45;;;5.10;;
69703;SDS011;56967;43.538;-5.646;2023-03-14T14:44:53;28.65;;;4.28;;
69703;SDS011;56967;43.538;-5.646;2023-03-14T14:47:22;23.45;;;3.58;;
69703;SDS011;56967;43.538;-5.646;2023-03-14T14:49:50;27.10;;;3.95;;
69703;SDS011;56967;43.538;-5.646;2023-03-14T14:54:59;31.58;;;4.45;;
69703;SDS011;56967;43.538;-5.646;2023-03-14T14:57:26;30.98;;;4.85;;
69703;SDS011;56967;43.538;-5.646;2023-03-14T15:00:00;32.95;;;4.85;;
69703;SDS011;56967;43.538;-5.646;2023-03-14T15:02:41;33.42;;;4.57;;
69703;SDS011;56967;43.538;-5.646;2023-03-14T15:05:12;28.45;;;5.05;;
69703;SDS011;56967;43.538;-5.646;2023-03-14T15:07:42;31.35;;;5.00;;
69703;SDS011;56967;43.538;-5.646;2023-03-14T15:10:20;33.15;;;4.45;;
69703;SDS011;56967;43.538;-5.646;2023-03-14T15:12:48;37.05;;;4.90;;
69703;SDS011;56967;43.538;-5.646;2023-03-14T15:15:14;29.88;;;4.53;;
69703;SDS011;56967;43.538;-5.646;2023-03-14T15:17:40;31.45;;;3.80;;
69703;SDS011;56967;43.538;-5.646;2023-03-14T15:20:09;35.53;;;4.47;;
69703;SDS011;56967;43.538;-5.646;2023-03-14T15:22:38;34.17;;;5.00;;
69703;SDS011;56967;43.538;-5.646;2023-03-14T15:25:05;32.88;;;4.45;;
69703;SDS011;56967;43.538;-5.646;2023-03-14T15:27:31;27.63;;;3.92;;
69703;SDS011;56967;43.538;-5.646;2023-03-14T15:29:57;29.38;;;5.05;;
69703;SDS011;56967;43.538;-5.646;2023-03-14T15:32:24;30.83;;;4.47;;
69703;SDS011;56967;43.538;-5.646;2023-03-14T15:34:52;31.35;;;5.32;;
69703;SDS011;56967;43.538;-5.646;2023-03-14T15:37:19;32.13;;;4.13;;
69703;SDS011;56967;43.538;-5.646;2023-03-14T15:39:45;24.80;;;4.40;;
69703;SDS011;56967;43.538;-5.646;2023-03-14T15:42:11;25.33;;;3.88;;
69703;SDS011;56967;43.538;-5.646;2023-03-14T15:44:37;29.30;;;4.45;;
69703;SDS011;56967;43.538;-5.646;2023-03-14T15:47:04;21.77;;;4.25;;
69703;SDS011;56967;43.538;-5.646;2023-03-14T15:49:31;33.40;;;4.25;;
69703;SDS011;56967;43.538;-5.646;2023-03-14T15:51:57;26.55;;;4.10;;
69703;SDS011;56967;43.538;-5.646;2023-03-14T15:54:22;29.92;;;4.60;;
69703;SDS011;56967;43.538;-5.646;2023-03-14T15:56:48;37.92;;;5.45;;
69703;SDS011;56967;43.538;-5.646;2023-03-14T15:59:13;28.60;;;4.35;;
69703;SDS011;56967;43.538;-5.646;2023-03-14T16:01:39;21.67;;;3.78;;
69703;SDS011;56967;43.538;-5.646;2023-03-14T16:04:04;28.25;;;4.07;;
69703;SDS011;56967;43.538;-5.646;2023-03-14T16:06:30;26.58;;;4.43;;
69703;SDS011;56967;43.538;-5.646;2023-03-14T16:08:56;35.00;;;5.25;;
69703;SDS011;56967;43.538;-5.646;2023-03-14T16:11:21;23.60;;;4.13;;